sensor_id;sensor_type;location;lat;lon;timestamp;P1;durP1;ratioP1;P2;durP2;ratioP2
74245;SDS011;62601;51.044;13.788;2023-03-11T00:01:00;0.60;;;0.60;;
74245;SDS011;62601;51.044;13.788;2023-03-11T00:03:21;0.60;;;0.52;;
74245;SDS011;62601;51.044;13.788;2023-03-11T00:05:43;0.77;;;0.77;;
74245;SDS011;62601;51.044;13.788;2023-03-11T00:08:04;0.90;;;0.75;;
74245;SDS011;62601;51.044;13.788;2023-03-11T00:10:26;0.80;;;0.60;;
74245;SDS011;62601;51.044;13.788;2023-03-11T00:12:47;0.70;;;0.60;;
74245;SDS011;62601;51.044;13.788;2023-03-11T00:15:09;0.70;;;0.70;;
74245;SDS011;62601;51.044;13.788;2023-03-11T00:17:30;0.60;;;0.60;;
74245;SDS011;62601;51.044;13.788;2023-03-11T00:19:50;0.82;;;0.60;;
74245;SDS011;62601;51.044;13.788;2023-03-11T00:22:11;1.70;;;0.80;;
74245;SDS011;62601;51.044;13.788;2023-03-11T00:24:33;1.10;;;0.88;;
74245;SDS011;62601;51.044;13.788;2023-03-11T00:26:54;1.05;;;0.70;;
74245;SDS011;62601;51.044;13.788;2023-03-11T00:29:16;0.70;;;0.55;;
74245;SDS011;62601;51.044;13.788;2023-03-11T00:31:37;0.93;;;0.85;;
74245;SDS011;62601;51.044;13.788;2023-03-11T00:33:58;1.02;;;0.63;;
74245;SDS011;62601;51.044;13.788;2023-03-11T00:36:27;0.88;;;0.80;;
74245;SDS011;62601;51.044;13.788;2023-03-11T00:38:49;1.05;;;0.95;;
74245;SDS011;62601;51.044;13.788;2023-03-11T00:41:10;0.80;;;0.80;;
74245;SDS011;62601;51.044;13.788;2023-03-11T00:43:32;0.75;;;0.75;;
74245;SDS011;62601;51.044;13.788;2023-03-11T00:45:53;0.50;;;0.50;;
74245;SDS011;62601;51.044;13.788;2023-03-11T00:48:14;0.65;;;0.65;;
74245;SDS011;62601;51.044;13.788;2023-03-11T00:50:36;0.82;;;0.60;;
74245;SDS011;62601;51.044;13.788;2023-03-11T00:52:57;0.73;;;0.65;;
74245;SDS011;62601;51.044;13.788;2023-03-11T00:55:24;0.90;;;0.90;;
74245;SDS011;62601;51.044;13.788;2023-03-11T00:57:44;1.30;;;0.85;;
74245;SDS011;62601;51.044;13.788;2023-03-11T01:00:04;0.80;;;0.80;;
74245;SDS011;62601;51.044;13.788;2023-03-11T01:02:25;0.90;;;0.80;;
74245;SDS011;62601;51.044;13.788;2023-03-11T01:04:45;0.80;;;0.80;;
74245;SDS011;62601;51.044;13.788;2023-03-11T01:07:05;1.35;;;1.20;;
74245;SDS011;62601;51.044;13.788;2023-03-11T01:09:25;1.15;;;0.90;;
74245;SDS011;62601;51.044;13.788;2023-03-11T01:11:45;0.77;;;0.77;;
74245;SDS011;62601;51.044;13.788;2023-03-11T01:14:05;0.68;;;0.68;;
74245;SDS011;62601;51.044;13.788;2023-03-11T01:16:26;1.25;;;0.70;;
74245;SDS011;62601;51.044;13.788;2023-03-11T01:18:48;0.80;;;0.65;;
74245;SDS011;62601;51.044;13.788;2023-03-11T01:21:10;0.80;;;0.70;;
74245;SDS011;62601;51.044;13.788;2023-03-11T01:23:31;0.85;;;0.80;;
74245;SDS011;62601;51.044;13.788;2023-03-11T01:25:52;1.10;;;1.00;;
74245;SDS011;62601;51.044;13.788;2023-03-11T01:28:14;1.00;;;0.82;;
74245;SDS011;62601;51.044;13.788;2023-03-11T01:30:36;0.70;;;0.70;;
74245;SDS011;62601;51.044;13.788;2023-03-11T01:32:58;0.90;;;0.90;;
74245;SDS011;62601;51.044;13.788;2023-03-11T01:35:20;0.70;;;0.70;;
74245;SDS011;62601;51.044;13.788;2023-03-11T01:37:42;0.63;;;0.60;;
74245;SDS011;62601;51.044;13.788;2023-03-11T01:40:03;0.82;;;0.75;;
74245;SDS011;62601;51.044;13.788;2023-03-11T01:42:25;0.65;;;0.65;;
74245;SDS011;62601;51.044;13.788;2023-03-11T01:44:46;0.80;;;0.80;;
74245;SDS011;62601;51.044;13.788;2023-03-11T01:49:31;0.73;;;0.73;;
74245;SDS011;62601;51.044;13.788;2023-03-11T01:51:53;0.60;;;0.60;;
74245;SDS011;62601;51.044;13.788;2023-03-11T01:54:37;0.77;;;0.77;;
74245;SDS011;62601;51.044;13.788;2023-03-11T01:56:59;0.82;;;0.80;;
74245;SDS011;62601;51.044;13.788;2023-03-11T01:59:23;3.95;;;1.10;;
74245;SDS011;62601;51.044;13.788;2023-03-11T02:01:48;1.60;;;1.08;;
74245;SDS011;62601;51.044;13.788;2023-03-11T02:04:12;1.30;;;1.20;;
74245;SDS011;62601;51.044;13.788;2023-03-11T02:06:32;2.30;;;1.48;;
74245;SDS011;62601;51.044;13.788;2023-03-11T02:08:53;1.40;;;1.30;;
74245;SDS011;62601;51.044;13.788;2023-03-11T02:11:25;1.30;;;1.20;;
74245;SDS011;62601;51.044;13.788;2023-03-11T02:13:47;0.90;;;0.90;;
74245;SDS011;62601;51.044;13.788;2023-03-11T02:16:09;1.48;;;1.38;;
74245;SDS011;62601;51.044;13.788;2023-03-11T02:18:30;1.58;;;1.48;;
74245;SDS011;62601;51.044;13.788;2023-03-11T02:21:04;1.85;;;1.70;;
74245;SDS011;62601;51.044;13.788;2023-03-11T02:23:29;1.63;;;1.52;;
74245;SDS011;62601;51.044;13.788;2023-03-11T02:28:32;1.20;;;1.10;;
74245;SDS011;62601;51.044;13.788;2023-03-11T02:30:54;1.60;;;1.50;;
74245;SDS011;62601;51.044;13.788;2023-03-11T02:33:21;1.48;;;1.38;;
74245;SDS011;62601;51.044;13.788;2023-03-11T02:35:43;1.25;;;1.15;;
74245;SDS011;62601;51.044;13.788;2023-03-11T02:38:04;1.75;;;1.65;;
74245;SDS011;62601;51.044;13.788;2023-03-11T02:40:35;3.17;;;1.30;;
74245;SDS011;62601;51.044;13.788;2023-03-11T02:43:00;1.50;;;1.40;;
74245;SDS011;62601;51.044;13.788;2023-03-11T02:45:23;2.00;;;1.85;;
74245;SDS011;62601;51.044;13.788;2023-03-11T02:47:45;1.33;;;1.23;;
74245;SDS011;62601;51.044;13.788;2023-03-11T02:50:08;1.40;;;1.30;;
74245;SDS011;62601;51.044;13.788;2023-03-11T02:52:31;1.70;;;1.60;;
74245;SDS011;62601;51.044;13.788;2023-03-11T02:54:54;1.40;;;1.30;;
74245;SDS011;62601;51.044;13.788;2023-03-11T02:57:15;1.50;;;1.40;;
74245;SDS011;62601;51.044;13.788;2023-03-11T02:59:36;1.40;;;1.30;;
74245;SDS011;62601;51.044;13.788;2023-03-11T03:01:58;1.48;;;1.38;;
74245;SDS011;62601;51.044;13.788;2023-03-11T03:04:19;1.98;;;1.00;;
74245;SDS011;62601;51.044;13.788;2023-03-11T03:06:41;1.55;;;1.45;;
74245;SDS011;62601;51.044;13.788;2023-03-11T03:09:02;1.35;;;1.25;;
74245;SDS011;62601;51.044;13.788;2023-03-11T03:11:24;1.20;;;1.10;;
74245;SDS011;62601;51.044;13.788;2023-03-11T03:13:45;1.50;;;1.00;;
74245;SDS011;62601;51.044;13.788;2023-03-11T03:16:06;1.50;;;1.15;;
74245;SDS011;62601;51.044;13.788;2023-03-11T03:18:28;1.20;;;1.10;;
74245;SDS011;62601;51.044;13.788;2023-03-11T03:20:49;1.17;;;1.05;;
74245;SDS011;62601;51.044;13.788;2023-03-11T03:23:11;1.52;;;1.27;;
74245;SDS011;62601;51.044;13.788;2023-03-11T03:25:32;1.23;;;1.13;;
74245;SDS011;62601;51.044;13.788;2023-03-11T03:27:54;2.22;;;2.13;;
74245;SDS011;62601;51.044;13.788;2023-03-11T03:30:15;1.27;;;1.20;;
74245;SDS011;62601;51.044;13.788;2023-03-11T03:32:36;1.30;;;1.20;;
74245;SDS011;62601;51.044;13.788;2023-03-11T03:34:58;1.70;;;1.60;;
74245;SDS011;62601;51.044;13.788;2023-03-11T03:37:19;1.45;;;1.35;;
74245;SDS011;62601;51.044;13.788;2023-03-11T03:39:40;2.25;;;2.05;;
74245;SDS011;62601;51.044;13.788;2023-03-11T03:42:05;2.00;;;1.80;;
74245;SDS011;62601;51.044;13.788;2023-03-11T03:44:26;2.33;;;1.80;;
74245;SDS011;62601;51.044;13.788;2023-03-11T03:46:48;2.25;;;1.85;;
74245;SDS011;62601;51.044;13.788;2023-03-11T03:49:09;2.08;;;1.98;;
74245;SDS011;62601;51.044;13.788;2023-03-11T03:51:31;2.10;;;1.90;;
74245;SDS011;62601;51.044;13.788;2023-03-11T03:53:52;2.58;;;2.38;;
74245;SDS011;62601;51.044;13.788;2023-03-11T03:56:14;2.10;;;2.00;;
74245;SDS011;62601;51.044;13.788;2023-03-11T03:58:36;2.70;;;2.50;;
74245;SDS011;62601;51.044;13.788;2023-03-11T04:00:58;2.75;;;2.55;;
74245;SDS011;62601;51.044;13.788;2023-03-11T04:03:19;2.90;;;2.60;;
74245;SDS011;62601;51.044;13.788;2023-03-11T04:05:40;3.05;;;2.85;;
74245;SDS011;62601;51.044;13.788;2023-03-11T04:08:02;2.70;;;2.50;;
74245;SDS011;62601;51.044;13.788;2023-03-11T04:10:22;3.00;;;2.70;;
74245;SDS011;62601;51.044;13.788;2023-03-11T04:12:43;3.08;;;2.78;;
74245;SDS011;62601;51.044;13.788;2023-03-11T04:15:05;3.55;;;3.25;;
74245;SDS011;62601;51.044;13.788;2023-03-11T04:17:26;2.90;;;2.70;;
74245;SDS011;62601;51.044;13.788;2023-03-11T04:19:48;3.03;;;2.80;;
74245;SDS011;62601;51.044;13.788;2023-03-11T04:22:09;3.30;;;3.00;;
74245;SDS011;62601;51.044;13.788;2023-03-11T04:24:30;3.75;;;3.45;;
74245;SDS011;62601;51.044;13.788;2023-03-11T04:26:52;3.47;;;3.17;;
74245;SDS011;62601;51.044;13.788;2023-03-11T04:29:12;3.58;;;3.28;;
74245;SDS011;62601;51.044;13.788;2023-03-11T04:31:33;3.35;;;3.05;;
74245;SDS011;62601;51.044;13.788;2023-03-11T04:33:55;3.38;;;3.05;;
74245;SDS011;62601;51.044;13.788;2023-03-11T04:36:16;3.90;;;3.55;;
74245;SDS011;62601;51.044;13.788;2023-03-11T04:38:38;5.10;;;4.35;;
74245;SDS011;62601;51.044;13.788;2023-03-11T04:41:03;4.00;;;3.60;;
74245;SDS011;62601;51.044;13.788;2023-03-11T04:43:24;4.00;;;3.63;;
74245;SDS011;62601;51.044;13.788;2023-03-11T04:45:48;4.50;;;4.10;;
74245;SDS011;62601;51.044;13.788;2023-03-11T04:48:10;4.07;;;3.30;;
74245;SDS011;62601;51.044;13.788;2023-03-11T04:50:31;4.93;;;4.35;;
74245;SDS011;62601;51.044;13.788;2023-03-11T04:52:53;4.75;;;4.25;;
74245;SDS011;62601;51.044;13.788;2023-03-11T04:55:14;4.97;;;3.78;;
74245;SDS011;62601;51.044;13.788;2023-03-11T04:57:36;4.70;;;4.20;;
74245;SDS011;62601;51.044;13.788;2023-03-11T04:59:58;5.57;;;5.07;;
74245;SDS011;62601;51.044;13.788;2023-03-11T05:02:18;4.95;;;4.10;;
74245;SDS011;62601;51.044;13.788;2023-03-11T05:04:39;4.85;;;4.35;;
74245;SDS011;62601;51.044;13.788;2023-03-11T05:07:00;4.97;;;4.25;;
74245;SDS011;62601;51.044;13.788;2023-03-11T05:09:22;4.90;;;3.88;;
74245;SDS011;62601;51.044;13.788;2023-03-11T05:11:43;3.95;;;3.65;;
74245;SDS011;62601;51.044;13.788;2023-03-11T05:14:05;5.05;;;4.40;;
74245;SDS011;62601;51.044;13.788;2023-03-11T05:16:26;4.13;;;3.72;;
74245;SDS011;62601;51.044;13.788;2023-03-11T05:18:47;5.40;;;3.85;;
74245;SDS011;62601;51.044;13.788;2023-03-11T05:21:09;5.55;;;4.00;;
74245;SDS011;62601;51.044;13.788;2023-03-11T05:23:30;4.82;;;4.43;;
74245;SDS011;62601;51.044;13.788;2023-03-11T05:25:52;3.95;;;3.63;;
74245;SDS011;62601;51.044;13.788;2023-03-11T05:28:13;5.15;;;4.20;;
74245;SDS011;62601;51.044;13.788;2023-03-11T05:30:34;4.97;;;4.18;;
74245;SDS011;62601;51.044;13.788;2023-03-11T05:32:56;5.38;;;4.88;;
74245;SDS011;62601;51.044;13.788;2023-03-11T05:35:17;4.95;;;4.32;;
74245;SDS011;62601;51.044;13.788;2023-03-11T05:37:38;4.35;;;3.70;;
74245;SDS011;62601;51.044;13.788;2023-03-11T05:40:00;4.60;;;4.20;;
74245;SDS011;62601;51.044;13.788;2023-03-11T05:42:24;5.53;;;4.57;;
74245;SDS011;62601;51.044;13.788;2023-03-11T05:44:46;5.03;;;4.50;;
74245;SDS011;62601;51.044;13.788;2023-03-11T05:47:06;4.95;;;4.45;;
74245;SDS011;62601;51.044;13.788;2023-03-11T05:49:27;5.20;;;4.70;;
74245;SDS011;62601;51.044;13.788;2023-03-11T05:51:48;5.32;;;4.78;;
74245;SDS011;62601;51.044;13.788;2023-03-11T05:54:08;5.03;;;4.55;;
74245;SDS011;62601;51.044;13.788;2023-03-11T05:56:29;5.00;;;4.50;;
74245;SDS011;62601;51.044;13.788;2023-03-11T05:58:51;5.30;;;4.80;;
74245;SDS011;62601;51.044;13.788;2023-03-11T06:01:13;5.53;;;5.03;;
74245;SDS011;62601;51.044;13.788;2023-03-11T06:03:35;5.13;;;4.65;;
74245;SDS011;62601;51.044;13.788;2023-03-11T06:05:55;5.75;;;4.95;;
74245;SDS011;62601;51.044;13.788;2023-03-11T06:08:17;5.85;;;5.00;;
74245;SDS011;62601;51.044;13.788;2023-03-11T06:10:39;5.70;;;5.13;;
74245;SDS011;62601;51.044;13.788;2023-03-11T06:13:00;5.25;;;4.45;;
74245;SDS011;62601;51.044;13.788;2023-03-11T06:15:21;5.65;;;5.15;;
74245;SDS011;62601;51.044;13.788;2023-03-11T06:17:43;5.60;;;5.00;;
74245;SDS011;62601;51.044;13.788;2023-03-11T06:20:04;6.07;;;5.47;;
74245;SDS011;62601;51.044;13.788;2023-03-11T06:22:25;5.65;;;5.05;;
74245;SDS011;62601;51.044;13.788;2023-03-11T06:24:46;6.05;;;5.40;;
74245;SDS011;62601;51.044;13.788;2023-03-11T06:27:07;6.40;;;5.18;;
74245;SDS011;62601;51.044;13.788;2023-03-11T06:29:29;6.65;;;5.43;;
74245;SDS011;62601;51.044;13.788;2023-03-11T06:31:50;6.80;;;6.10;;
74245;SDS011;62601;51.044;13.788;2023-03-11T06:34:12;6.95;;;5.80;;
74245;SDS011;62601;51.044;13.788;2023-03-11T06:36:33;6.20;;;5.47;;
74245;SDS011;62601;51.044;13.788;2023-03-11T06:38:54;7.35;;;5.55;;
74245;SDS011;62601;51.044;13.788;2023-03-11T06:41:15;6.60;;;5.72;;
74245;SDS011;62601;51.044;13.788;2023-03-11T06:43:37;7.40;;;6.45;;
74245;SDS011;62601;51.044;13.788;2023-03-11T06:45:58;7.75;;;6.70;;
74245;SDS011;62601;51.044;13.788;2023-03-11T06:48:20;6.47;;;5.65;;
74245;SDS011;62601;51.044;13.788;2023-03-11T06:50:41;7.60;;;6.43;;
74245;SDS011;62601;51.044;13.788;2023-03-11T06:53:02;9.48;;;7.00;;
74245;SDS011;62601;51.044;13.788;2023-03-11T06:55:24;7.47;;;6.57;;
74245;SDS011;62601;51.044;13.788;2023-03-11T06:57:45;6.55;;;5.90;;
74245;SDS011;62601;51.044;13.788;2023-03-11T07:00:07;7.38;;;6.63;;
74245;SDS011;62601;51.044;13.788;2023-03-11T07:02:28;8.90;;;7.35;;
74245;SDS011;62601;51.044;13.788;2023-03-11T07:04:49;7.55;;;6.55;;
74245;SDS011;62601;51.044;13.788;2023-03-11T07:07:11;7.78;;;6.60;;
74245;SDS011;62601;51.044;13.788;2023-03-11T07:09:32;9.60;;;7.93;;
74245;SDS011;62601;51.044;13.788;2023-03-11T07:11:54;8.90;;;6.72;;
74245;SDS011;62601;51.044;13.788;2023-03-11T07:14:15;8.15;;;7.00;;
74245;SDS011;62601;51.044;13.788;2023-03-11T07:16:37;7.82;;;6.35;;
74245;SDS011;62601;51.044;13.788;2023-03-11T07:18:59;9.05;;;7.50;;
74245;SDS011;62601;51.044;13.788;2023-03-11T07:21:21;8.77;;;6.60;;
74245;SDS011;62601;51.044;13.788;2023-03-11T07:23:43;8.27;;;6.88;;
74245;SDS011;62601;51.044;13.788;2023-03-11T07:26:06;9.30;;;7.57;;
74245;SDS011;62601;51.044;13.788;2023-03-11T07:28:28;7.57;;;6.13;;
74245;SDS011;62601;51.044;13.788;2023-03-11T07:30:49;8.88;;;7.07;;
74245;SDS011;62601;51.044;13.788;2023-03-11T07:33:11;7.95;;;6.85;;
74245;SDS011;62601;51.044;13.788;2023-03-11T07:35:34;9.85;;;7.60;;
74245;SDS011;62601;51.044;13.788;2023-03-11T07:37:56;9.60;;;8.05;;
74245;SDS011;62601;51.044;13.788;2023-03-11T07:40:17;10.38;;;6.97;;
74245;SDS011;62601;51.044;13.788;2023-03-11T07:42:39;9.27;;;7.43;;
74245;SDS011;62601;51.044;13.788;2023-03-11T07:44:59;10.35;;;7.30;;
74245;SDS011;62601;51.044;13.788;2023-03-11T07:47:21;7.00;;;6.05;;
74245;SDS011;62601;51.044;13.788;2023-03-11T07:49:43;8.48;;;6.93;;
74245;SDS011;62601;51.044;13.788;2023-03-11T07:52:04;8.45;;;6.72;;
74245;SDS011;62601;51.044;13.788;2023-03-11T07:54:26;7.57;;;6.70;;
74245;SDS011;62601;51.044;13.788;2023-03-11T07:56:47;8.45;;;7.10;;
74245;SDS011;62601;51.044;13.788;2023-03-11T07:59:09;10.00;;;6.45;;
74245;SDS011;62601;51.044;13.788;2023-03-11T08:01:31;9.40;;;7.68;;
74245;SDS011;62601;51.044;13.788;2023-03-11T08:03:52;8.00;;;6.82;;
74245;SDS011;62601;51.044;13.788;2023-03-11T08:06:15;8.45;;;6.97;;
74245;SDS011;62601;51.044;13.788;2023-03-11T08:08:36;9.85;;;7.47;;
74245;SDS011;62601;51.044;13.788;2023-03-11T08:10:58;10.00;;;8.27;;
74245;SDS011;62601;51.044;13.788;2023-03-11T08:13:22;10.02;;;6.25;;
74245;SDS011;62601;51.044;13.788;2023-03-11T08:15:43;8.98;;;7.28;;
74245;SDS011;62601;51.044;13.788;2023-03-11T08:18:05;9.23;;;7.00;;
74245;SDS011;62601;51.044;13.788;2023-03-11T08:20:26;8.40;;;6.57;;
74245;SDS011;62601;51.044;13.788;2023-03-11T08:22:47;11.05;;;7.00;;
74245;SDS011;62601;51.044;13.788;2023-03-11T08:25:09;9.23;;;7.10;;
74245;SDS011;62601;51.044;13.788;2023-03-11T08:27:30;12.32;;;7.22;;
74245;SDS011;62601;51.044;13.788;2023-03-11T08:29:51;9.73;;;7.50;;
74245;SDS011;62601;51.044;13.788;2023-03-11T08:32:11;9.38;;;7.53;;
74245;SDS011;62601;51.044;13.788;2023-03-11T08:34:33;11.20;;;7.45;;
74245;SDS011;62601;51.044;13.788;2023-03-11T08:36:54;11.23;;;8.05;;
74245;SDS011;62601;51.044;13.788;2023-03-11T08:39:15;10.15;;;7.35;;
74245;SDS011;62601;51.044;13.788;2023-03-11T08:41:35;12.15;;;8.00;;
74245;SDS011;62601;51.044;13.788;2023-03-11T08:43:56;12.40;;;8.30;;
74245;SDS011;62601;51.044;13.788;2023-03-11T08:46:29;11.20;;;7.70;;
74245;SDS011;62601;51.044;13.788;2023-03-11T08:48:51;10.95;;;8.20;;
74245;SDS011;62601;51.044;13.788;2023-03-11T08:51:16;9.35;;;7.47;;
74245;SDS011;62601;51.044;13.788;2023-03-11T08:53:36;9.63;;;7.35;;
74245;SDS011;62601;51.044;13.788;2023-03-11T08:55:58;12.40;;;8.40;;
74245;SDS011;62601;51.044;13.788;2023-03-11T08:58:19;9.75;;;7.82;;
74245;SDS011;62601;51.044;13.788;2023-03-11T09:00:39;9.13;;;7.40;;
74245;SDS011;62601;51.044;13.788;2023-03-11T09:03:01;10.85;;;7.70;;
74245;SDS011;62601;51.044;13.788;2023-03-11T09:05:22;10.95;;;7.93;;
74245;SDS011;62601;51.044;13.788;2023-03-11T09:07:42;11.10;;;7.90;;
74245;SDS011;62601;51.044;13.788;2023-03-11T09:10:04;8.48;;;7.13;;
74245;SDS011;62601;51.044;13.788;2023-03-11T09:12:26;9.45;;;6.45;;
74245;SDS011;62601;51.044;13.788;2023-03-11T09:14:47;9.10;;;7.13;;
74245;SDS011;62601;51.044;13.788;2023-03-11T09:17:09;9.85;;;6.63;;
74245;SDS011;62601;51.044;13.788;2023-03-11T09:19:29;11.77;;;8.45;;
74245;SDS011;62601;51.044;13.788;2023-03-11T09:21:50;10.40;;;8.10;;
74245;SDS011;62601;51.044;13.788;2023-03-11T09:24:11;9.07;;;6.85;;
74245;SDS011;62601;51.044;13.788;2023-03-11T09:26:32;8.43;;;7.38;;
74245;SDS011;62601;51.044;13.788;2023-03-11T09:28:54;10.82;;;7.10;;
74245;SDS011;62601;51.044;13.788;2023-03-11T09:31:15;8.27;;;6.63;;
74245;SDS011;62601;51.044;13.788;2023-03-11T09:33:38;8.38;;;7.07;;
74245;SDS011;62601;51.044;13.788;2023-03-11T09:36:00;9.65;;;7.93;;
74245;SDS011;62601;51.044;13.788;2023-03-11T09:38:20;10.07;;;7.32;;
74245;SDS011;62601;51.044;13.788;2023-03-11T09:41:01;9.30;;;7.70;;
74245;SDS011;62601;51.044;13.788;2023-03-11T09:43:30;10.57;;;7.15;;
74245;SDS011;62601;51.044;13.788;2023-03-11T09:48:59;10.07;;;7.80;;
74245;SDS011;62601;51.044;13.788;2023-03-11T09:51:27;12.30;;;9.95;;
74245;SDS011;62601;51.044;13.788;2023-03-11T09:53:52;13.65;;;9.63;;
74245;SDS011;62601;51.044;13.788;2023-03-11T09:56:19;9.95;;;7.75;;
74245;SDS011;62601;51.044;13.788;2023-03-11T09:58:42;9.57;;;8.00;;
74245;SDS011;62601;51.044;13.788;2023-03-11T10:01:23;11.05;;;8.30;;
74245;SDS011;62601;51.044;13.788;2023-03-11T10:03:45;8.38;;;6.60;;
74245;SDS011;62601;51.044;13.788;2023-03-11T10:06:16;7.32;;;6.57;;
74245;SDS011;62601;51.044;13.788;2023-03-11T10:08:51;8.65;;;7.00;;
74245;SDS011;62601;51.044;13.788;2023-03-11T10:16:43;8.55;;;7.15;;
74245;SDS011;62601;51.044;13.788;2023-03-11T10:19:18;9.00;;;7.50;;
74245;SDS011;62601;51.044;13.788;2023-03-11T10:24:32;9.32;;;7.75;;
74245;SDS011;62601;51.044;13.788;2023-03-11T10:26:59;10.10;;;7.40;;
74245;SDS011;62601;51.044;13.788;2023-03-11T10:29:41;8.43;;;6.70;;
74245;SDS011;62601;51.044;13.788;2023-03-11T10:32:05;13.07;;;8.93;;
74245;SDS011;62601;51.044;13.788;2023-03-11T10:34:40;10.85;;;8.75;;
74245;SDS011;62601;51.044;13.788;2023-03-11T10:39:30;10.50;;;6.78;;
74245;SDS011;62601;51.044;13.788;2023-03-11T10:42:04;10.23;;;7.68;;
74245;SDS011;62601;51.044;13.788;2023-03-11T10:44:43;9.93;;;7.50;;
74245;SDS011;62601;51.044;13.788;2023-03-11T10:47:05;9.68;;;6.72;;
74245;SDS011;62601;51.044;13.788;2023-03-11T10:49:28;7.70;;;6.68;;
74245;SDS011;62601;51.044;13.788;2023-03-11T10:51:50;9.00;;;7.22;;
74245;SDS011;62601;51.044;13.788;2023-03-11T10:56:55;10.73;;;6.65;;
74245;SDS011;62601;51.044;13.788;2023-03-11T10:59:32;7.55;;;6.65;;
74245;SDS011;62601;51.044;13.788;2023-03-11T11:01:58;8.35;;;7.03;;
74245;SDS011;62601;51.044;13.788;2023-03-11T11:04:25;7.85;;;6.55;;
74245;SDS011;62601;51.044;13.788;2023-03-11T11:06:47;8.60;;;7.55;;
74245;SDS011;62601;51.044;13.788;2023-03-11T11:09:21;7.65;;;6.40;;
74245;SDS011;62601;51.044;13.788;2023-03-11T11:11:42;9.82;;;7.30;;
74245;SDS011;62601;51.044;13.788;2023-03-11T11:14:19;11.27;;;7.10;;
74245;SDS011;62601;51.044;13.788;2023-03-11T11:16:41;8.18;;;6.90;;
74245;SDS011;62601;51.044;13.788;2023-03-11T11:19:11;7.70;;;6.75;;
74245;SDS011;62601;51.044;13.788;2023-03-11T11:21:36;10.27;;;7.05;;
74245;SDS011;62601;51.044;13.788;2023-03-11T11:24:40;7.63;;;6.68;;
74245;SDS011;62601;51.044;13.788;2023-03-11T11:27:01;10.38;;;7.35;;
74245;SDS011;62601;51.044;13.788;2023-03-11T11:29:23;9.13;;;7.30;;
74245;SDS011;62601;51.044;13.788;2023-03-11T11:31:44;7.38;;;6.57;;
74245;SDS011;62601;51.044;13.788;2023-03-11T11:36:45;8.63;;;6.57;;
74245;SDS011;62601;51.044;13.788;2023-03-11T11:39:09;8.68;;;6.30;;
74245;SDS011;62601;51.044;13.788;2023-03-11T11:41:35;6.03;;;5.25;;
74245;SDS011;62601;51.044;13.788;2023-03-11T11:43:59;10.02;;;7.70;;
74245;SDS011;62601;51.044;13.788;2023-03-11T11:46:45;10.50;;;8.32;;
74245;SDS011;62601;51.044;13.788;2023-03-11T11:49:23;8.35;;;6.22;;
74245;SDS011;62601;51.044;13.788;2023-03-11T11:52:07;6.57;;;5.65;;
74245;SDS011;62601;51.044;13.788;2023-03-11T11:54:36;6.85;;;5.40;;
74245;SDS011;62601;51.044;13.788;2023-03-11T11:56:58;6.43;;;5.80;;
74245;SDS011;62601;51.044;13.788;2023-03-11T11:59:21;6.45;;;5.75;;
74245;SDS011;62601;51.044;13.788;2023-03-11T12:01:50;7.03;;;5.90;;
74245;SDS011;62601;51.044;13.788;2023-03-11T12:06:56;7.75;;;6.25;;
74245;SDS011;62601;51.044;13.788;2023-03-11T12:12:20;6.72;;;5.90;;
74245;SDS011;62601;51.044;13.788;2023-03-11T12:14:49;6.75;;;5.80;;
74245;SDS011;62601;51.044;13.788;2023-03-11T12:17:13;6.65;;;5.95;;
74245;SDS011;62601;51.044;13.788;2023-03-11T12:27:36;7.68;;;6.00;;
74245;SDS011;62601;51.044;13.788;2023-03-11T12:30:09;7.82;;;5.45;;
74245;SDS011;62601;51.044;13.788;2023-03-11T12:33:28;17.30;;;13.15;;
74245;SDS011;62601;51.044;13.788;2023-03-11T12:35:27;7.90;;;6.38;;
74245;SDS011;62601;51.044;13.788;2023-03-11T12:38:24;8.88;;;6.45;;
74245;SDS011;62601;51.044;13.788;2023-03-11T12:40:49;6.57;;;5.80;;
74245;SDS011;62601;51.044;13.788;2023-03-11T12:43:26;8.60;;;5.85;;
74245;SDS011;62601;51.044;13.788;2023-03-11T12:45:52;7.00;;;5.53;;
74245;SDS011;62601;51.044;13.788;2023-03-11T12:50:53;5.40;;;4.57;;
74245;SDS011;62601;51.044;13.788;2023-03-11T12:53:15;6.13;;;5.15;;
74245;SDS011;62601;51.044;13.788;2023-03-11T12:55:36;7.57;;;6.18;;
74245;SDS011;62601;51.044;13.788;2023-03-11T12:58:00;8.18;;;5.47;;
74245;SDS011;62601;51.044;13.788;2023-03-11T13:03:11;7.28;;;6.10;;
74245;SDS011;62601;51.044;13.788;2023-03-11T13:08:18;8.98;;;6.30;;
74245;SDS011;62601;51.044;13.788;2023-03-11T13:10:42;7.20;;;6.22;;
74245;SDS011;62601;51.044;13.788;2023-03-11T13:13:48;8.05;;;6.05;;
74245;SDS011;62601;51.044;13.788;2023-03-11T13:15:45;8.02;;;6.13;;
74245;SDS011;62601;51.044;13.788;2023-03-11T13:25:43;7.03;;;5.50;;
74245;SDS011;62601;51.044;13.788;2023-03-11T13:36:17;7.22;;;6.50;;
74245;SDS011;62601;51.044;13.788;2023-03-11T13:38:44;7.20;;;5.70;;
74245;SDS011;62601;51.044;13.788;2023-03-11T13:41:28;7.97;;;6.43;;
74245;SDS011;62601;51.044;13.788;2023-03-11T13:43:50;7.05;;;5.30;;
74245;SDS011;62601;51.044;13.788;2023-03-11T13:46:13;7.43;;;5.90;;
74245;SDS011;62601;51.044;13.788;2023-03-11T13:48:37;7.15;;;5.65;;
74245;SDS011;62601;51.044;13.788;2023-03-11T13:51:01;5.47;;;4.97;;
74245;SDS011;62601;51.044;13.788;2023-03-11T13:53:53;5.97;;;5.13;;
74245;SDS011;62601;51.044;13.788;2023-03-11T13:56:25;7.13;;;5.35;;
74245;SDS011;62601;51.044;13.788;2023-03-11T13:58:48;7.35;;;5.13;;
74245;SDS011;62601;51.044;13.788;2023-03-11T14:01:13;7.10;;;6.25;;
74245;SDS011;62601;51.044;13.788;2023-03-11T14:03:43;5.75;;;5.13;;
74245;SDS011;62601;51.044;13.788;2023-03-11T14:06:10;7.47;;;5.95;;
74245;SDS011;62601;51.044;13.788;2023-03-11T14:08:33;8.75;;;5.50;;
74245;SDS011;62601;51.044;13.788;2023-03-11T14:13:31;10.70;;;5.43;;
74245;SDS011;62601;51.044;13.788;2023-03-11T14:16:03;5.55;;;4.88;;
74245;SDS011;62601;51.044;13.788;2023-03-11T14:18:33;7.30;;;5.03;;
74245;SDS011;62601;51.044;13.788;2023-03-11T14:20:54;4.40;;;3.90;;
74245;SDS011;62601;51.044;13.788;2023-03-11T14:23:19;5.80;;;4.50;;
74245;SDS011;62601;51.044;13.788;2023-03-11T14:25:39;5.35;;;4.72;;
74245;SDS011;62601;51.044;13.788;2023-03-11T14:28:00;4.30;;;3.85;;
74245;SDS011;62601;51.044;13.788;2023-03-11T14:30:22;6.35;;;5.20;;
74245;SDS011;62601;51.044;13.788;2023-03-11T14:32:42;11.23;;;7.90;;
74245;SDS011;62601;51.044;13.788;2023-03-11T14:35:17;4.43;;;3.80;;
74245;SDS011;62601;51.044;13.788;2023-03-11T14:37:37;5.72;;;4.80;;
74245;SDS011;62601;51.044;13.788;2023-03-11T14:39:58;7.80;;;4.68;;
74245;SDS011;62601;51.044;13.788;2023-03-11T14:42:23;5.65;;;4.43;;
74245;SDS011;62601;51.044;13.788;2023-03-11T14:44:49;5.35;;;4.55;;
74245;SDS011;62601;51.044;13.788;2023-03-11T14:47:13;5.50;;;4.43;;
74245;SDS011;62601;51.044;13.788;2023-03-11T14:49:35;5.97;;;4.68;;
74245;SDS011;62601;51.044;13.788;2023-03-11T14:52:00;6.97;;;4.70;;
74245;SDS011;62601;51.044;13.788;2023-03-11T14:54:23;4.95;;;4.32;;
74245;SDS011;62601;51.044;13.788;2023-03-11T14:56:45;4.72;;;4.13;;
74245;SDS011;62601;51.044;13.788;2023-03-11T14:59:16;6.03;;;4.25;;
74245;SDS011;62601;51.044;13.788;2023-03-11T15:01:39;5.40;;;4.53;;
74245;SDS011;62601;51.044;13.788;2023-03-11T15:04:12;5.80;;;4.75;;
74245;SDS011;62601;51.044;13.788;2023-03-11T15:06:33;5.97;;;4.47;;
74245;SDS011;62601;51.044;13.788;2023-03-11T15:08:56;6.10;;;4.60;;
74245;SDS011;62601;51.044;13.788;2023-03-11T15:11:26;6.40;;;4.93;;
74245;SDS011;62601;51.044;13.788;2023-03-11T15:13:47;5.57;;;4.30;;
74245;SDS011;62601;51.044;13.788;2023-03-11T15:16:20;5.40;;;4.50;;